createdAt,value
2022-08-26T00:01:29.990Z,98292.28
2022-08-26T00:04:32.325Z,98293.63
2022-08-26T00:07:34.120Z,98290.91
2022-08-26T00:10:37.383Z,98288.34
2022-08-26T00:13:39.188Z,98287.59
2022-08-26T00:16:47.973Z,98289.09
2022-08-26T00:19:51.274Z,98294.09
2022-08-26T00:22:55.358Z,98288.66
2022-08-26T00:25:58.940Z,98292.41
2022-08-26T00:29:01.321Z,98287.28
2022-08-26T00:32:03.939Z,98282.16
2022-08-26T00:35:06.573Z,98284.16
2022-08-26T00:38:09.948Z,98285.31
2022-08-26T00:41:13.470Z,98274.75
2022-08-26T00:44:14.969Z,98286.47
2022-08-26T00:47:21.896Z,98277.63
2022-08-26T00:50:26.134Z,98279.78
2022-08-26T00:53:30.887Z,98274.78
2022-08-26T00:56:36.870Z,98271.38
2022-08-26T00:59:39.439Z,98277.13
2022-08-26T01:02:41.199Z,98279.13
2022-08-26T01:05:48.543Z,98268.56
2022-08-26T01:08:52.177Z,98271.56
2022-08-26T01:11:56.262Z,98272.59
2022-08-26T01:14:58.091Z,98272.59
2022-08-26T01:17:59.842Z,98275.31
2022-08-26T01:21:06.220Z,98275.19
2022-08-26T01:24:10.547Z,98274.63
2022-08-26T01:27:13.380Z,98271.34
2022-08-26T01:30:15.067Z,98270.91
2022-08-26T01:33:18.959Z,98272.63
2022-08-26T01:36:20.618Z,98271.91
2022-08-26T01:39:24.243Z,98270.53
2022-08-26T01:42:27.455Z,98277.22
2022-08-26T01:45:32.932Z,98273.81
2022-08-26T01:48:36.637Z,98281.09
2022-08-26T01:51:39.089Z,98281.50
2022-08-26T01:54:42.795Z,98277.25
2022-08-26T01:57:49.708Z,98278.81
2022-08-26T02:00:54.451Z,98281.25
2022-08-26T02:03:58.549Z,98276.97
2022-08-26T02:07:02.760Z,98273.84
2022-08-26T02:10:07.303Z,98271.84
2022-08-26T02:13:10.199Z,98269.44
2022-08-26T02:16:13.187Z,98281.59
2022-08-26T02:19:17.134Z,98287.28
2022-08-26T02:22:20.223Z,98282.16
2022-08-26T02:25:25.189Z,98281.31
2022-08-26T02:28:28.486Z,98275.88
2022-08-26T02:31:30.328Z,98270.44
2022-08-26T02:34:33.078Z,98277.03
2022-08-26T02:37:34.797Z,98276.47
2022-08-26T02:40:41.079Z,98270.75
2022-08-26T02:43:43.426Z,98265.50
2022-08-26T02:46:47.138Z,98267.50
2022-08-26T02:49:49.748Z,98266.50
2022-08-26T02:52:51.912Z,98261.22
2022-08-26T02:55:55.334Z,98259.47
2022-08-26T02:58:59.431Z,98257.75
2022-08-26T03:02:01.720Z,98255.78
2022-08-26T03:05:03.840Z,98250.38
2022-08-26T03:08:05.762Z,98240.50
2022-08-26T03:11:08.722Z,98245.06
2022-08-26T03:14:13.370Z,98241.66
2022-08-26T03:17:16.003Z,98243.22
2022-08-26T03:20:17.695Z,98239.63
2022-08-26T03:23:19.150Z,98243.22
2022-08-26T03:26:23.088Z,98239.22
2022-08-26T03:29:43.193Z,98229.38
2022-08-26T03:32:44.920Z,98238.78
2022-08-26T03:35:50.541Z,98236.22
2022-08-26T03:38:52.422Z,98224.53
2022-08-26T03:41:55.561Z,98224.13
2022-08-26T03:44:57.315Z,98232.81
2022-08-26T03:47:59.817Z,98233.13
2022-08-26T03:51:01.507Z,98224.13
2022-08-26T03:54:05.034Z,98222.53
2022-08-26T03:57:11.093Z,98223.66
2022-08-26T04:00:15.049Z,98220.84
2022-08-26T04:03:39.986Z,98221.25
2022-08-26T04:06:45.219Z,98223.94
2022-08-26T04:09:46.877Z,98228.38
2022-08-26T04:12:51.020Z,98225.41
2022-08-26T04:15:52.718Z,98222.53
2022-08-26T04:18:54.414Z,98226.81
2022-08-26T04:21:56.179Z,98224.50
2022-08-26T04:24:58.307Z,98214.56
2022-08-26T04:28:02.447Z,98224.25
2022-08-26T04:31:04.401Z,98225.66
2022-08-26T04:34:07.009Z,98225.09
2022-08-26T04:37:08.577Z,98226.97
2022-08-26T04:40:10.234Z,98221.69
2022-08-26T04:43:14.216Z,98225.97
2022-08-26T04:46:17.446Z,98222.84
2022-08-26T04:49:20.965Z,98228.81
2022-08-26T04:52:22.505Z,98232.38
2022-08-26T04:55:38.578Z,98229.66
2022-08-26T04:58:45.676Z,98232.09
2022-08-26T05:01:48.662Z,98228.25
2022-08-26T05:04:51.952Z,98222.84
2022-08-26T05:07:54.776Z,98229.53
2022-08-26T05:10:56.922Z,98227.38
2022-08-26T05:14:02.280Z,98230.09
2022-08-26T05:17:04.006Z,98225.25
2022-08-26T05:20:06.826Z,98227.97
2022-08-26T05:23:08.579Z,98226.50
2022-08-26T05:26:10.670Z,98233.38
2022-08-26T05:29:14.225Z,98234.22
2022-08-26T05:32:16.007Z,98230.56
2022-08-26T05:35:18.037Z,98235.13
2022-08-26T05:38:21.154Z,98233.97
2022-08-26T05:41:25.003Z,98240.94
2022-08-26T05:44:29.321Z,98237.53
2022-08-26T05:47:51.378Z,98225.97
2022-08-26T05:50:53.318Z,98230.22
2022-08-26T05:53:55.885Z,98235.91
2022-08-26T05:57:00.321Z,98242.78
2022-08-26T06:00:04.533Z,98243.19
2022-08-26T06:03:07.499Z,98249.88
2022-08-26T06:06:11.073Z,98238.88
2022-08-26T06:09:12.859Z,98249.28
2022-08-26T06:12:15.772Z,98242.72
2022-08-26T06:15:21.992Z,98246.69
2022-08-26T06:18:27.993Z,98237.13
2022-08-26T06:21:31.962Z,98241.09
2022-08-26T06:24:52.519Z,98244.78
2022-08-26T06:27:54.149Z,98235.06
2022-08-26T06:30:57.329Z,98229.72
2022-08-26T06:33:59.920Z,98234.25
2022-08-26T06:37:02.839Z,98238.78
2022-08-26T06:40:05.600Z,98245.34
2022-08-26T06:43:07.325Z,98238.28
2022-08-26T06:46:11.822Z,98235.81
2022-08-26T06:49:13.567Z,98242.91
2022-08-26T06:52:23.107Z,98241.97
2022-08-26T06:55:27.060Z,98238.78
2022-08-26T06:58:28.898Z,98246.91
2022-08-26T07:01:33.729Z,98246.31
2022-08-26T07:04:35.999Z,98252.66
2022-08-26T07:07:38.493Z,98254.59
2022-08-26T07:10:40.046Z,98255.84
2022-08-26T07:13:41.802Z,98253.81
2022-08-26T07:16:47.458Z,98256.06
2022-08-26T07:19:49.144Z,98257.06
2022-08-26T07:22:50.950Z,98263.69
2022-08-26T07:25:52.428Z,98265.56
2022-08-26T07:28:55.840Z,98270.84
2022-08-26T07:31:59.821Z,98270.50
2022-08-26T07:35:01.428Z,98281.63
2022-08-26T07:38:03.170Z,98280.31
2022-08-26T07:41:05.234Z,98281.38
2022-08-26T07:44:08.719Z,98279.75
2022-08-26T07:47:25.276Z,98281.50
2022-08-26T07:50:49.355Z,98279.59
2022-08-26T07:53:52.317Z,98286.97
2022-08-26T07:56:54.826Z,98284.81
2022-08-26T07:59:58.125Z,98288.25
2022-08-26T08:03:02.087Z,98280.53
2022-08-26T08:06:04.097Z,98287.41
2022-08-26T08:09:08.781Z,98289.28
2022-08-26T08:12:14.136Z,98286.44
2022-08-26T08:15:16.553Z,98293.41
2022-08-26T08:18:20.491Z,98298.78
2022-08-26T08:21:23.926Z,98301.22
2022-08-26T08:24:25.843Z,98299.44
2022-08-26T08:27:27.737Z,98291.59
2022-08-26T08:30:29.861Z,98293.47
2022-08-26T08:33:33.771Z,98288.34
2022-08-26T08:36:36.275Z,98287.69
2022-08-26T08:39:37.944Z,98293.97
2022-08-26T08:42:44.258Z,98291.94
2022-08-26T08:45:47.344Z,98291.28
2022-08-26T08:48:56.784Z,98291.81
2022-08-26T08:52:02.605Z,98291.72
2022-08-26T08:55:11.164Z,98290.91
2022-08-26T08:58:17.497Z,98280.00
2022-08-26T09:01:28.273Z,98288.84
2022-08-26T09:04:41.940Z,98288.66
2022-08-26T09:07:45.114Z,98289.84
2022-08-26T09:10:51.473Z,98289.19
2022-08-26T09:13:53.750Z,98290.53
2022-08-26T09:17:01.509Z,98282.34
2022-08-26T09:20:12.283Z,98281.19
2022-08-26T09:23:14.537Z,98282.72
2022-08-26T09:26:17.595Z,98278.63
2022-08-26T09:32:24.916Z,98275.72
2022-08-26T09:35:30.997Z,98276.59
2022-08-26T09:38:35.718Z,98278.28
2022-08-26T09:41:37.854Z,98271.81
2022-08-26T09:44:53.285Z,98273.34
2022-08-26T09:47:56.302Z,98270.78
2022-08-26T09:51:01.308Z,98273.00
2022-08-26T09:54:05.756Z,98259.19
2022-08-26T09:57:16.314Z,98266.16
2022-08-26T10:00:32.388Z,98259.84
2022-08-26T10:03:36.378Z,98253.84
2022-08-26T10:06:41.894Z,98256.38
2022-08-26T10:09:44.498Z,98250.22
2022-08-26T10:12:56.507Z,98240.06
2022-08-26T10:16:01.802Z,98240.44
2022-08-26T10:19:06.563Z,98232.72
2022-08-26T10:22:13.704Z,98231.75
2022-08-26T10:25:17.121Z,98226.03
2022-08-26T10:28:21.674Z,98221.78
2022-08-26T10:31:27.821Z,98212.88
2022-08-26T10:34:29.473Z,98213.44
2022-08-26T10:37:34.934Z,98206.31
2022-08-26T10:40:44.345Z,98202.00
2022-08-26T10:43:48.995Z,98201.94
2022-08-26T10:46:54.465Z,98198.19
2022-08-26T10:50:00.550Z,98207.41
2022-08-26T10:53:12.094Z,98207.72
2022-08-26T10:56:19.369Z,98204.97
2022-08-26T10:59:24.267Z,98209.41
2022-08-26T11:02:35.949Z,98202.44
2022-08-26T11:05:37.505Z,98202.81
2022-08-26T11:08:47.338Z,98201.81
2022-08-26T11:11:49.789Z,98214.00
2022-08-26T11:14:53.270Z,98209.91
2022-08-26T11:17:56.929Z,98193.19
2022-08-26T11:20:58.449Z,98187.72
2022-08-26T11:24:01.742Z,98187.25
2022-08-26T11:27:04.237Z,98197.34
2022-08-26T11:30:07.777Z,98193.94
2022-08-26T11:33:09.393Z,98193.47
2022-08-26T11:36:12.282Z,98180.69
2022-08-26T11:39:18.201Z,98178.03
2022-08-26T11:42:27.805Z,98186.53
2022-08-26T11:45:32.669Z,98179.13
2022-08-26T11:48:35.640Z,98182.44
2022-08-26T11:51:40.919Z,98183.97
2022-08-26T11:54:58.842Z,98169.81
2022-08-26T11:58:07.480Z,98173.06
2022-08-26T12:01:11.513Z,98165.00
2022-08-26T12:04:17.863Z,98176.19
2022-08-26T12:07:23.968Z,98181.03
2022-08-26T12:10:29.948Z,98180.13
2022-08-26T12:13:33.240Z,98177.00
2022-08-26T12:16:39.151Z,98184.34
2022-08-26T12:19:41.419Z,98177.63
2022-08-26T12:22:43.587Z,98168.03
2022-08-26T12:25:50.786Z,98164.44
2022-08-26T12:28:55.917Z,98161.63
2022-08-26T12:32:07.269Z,98169.66
2022-08-26T12:35:10.220Z,98155.00
2022-08-26T12:38:12.928Z,98156.97
2022-08-26T12:41:29.398Z,98150.25
2022-08-26T12:44:33.371Z,98141.47
2022-08-26T12:47:43.015Z,98145.94
2022-08-26T12:50:50.232Z,98133.97
2022-08-26T12:53:51.775Z,98137.22
2022-08-26T12:56:54.224Z,98134.78
2022-08-26T13:00:11.330Z,98131.06
2022-08-26T13:03:38.336Z,98128.81
2022-08-26T13:06:40.424Z,98132.28
2022-08-26T13:09:45.034Z,98134.34
2022-08-26T13:12:46.789Z,98126.22
2022-08-26T13:15:48.353Z,98119.78
2022-08-26T13:18:56.669Z,98114.47
2022-08-26T13:21:59.269Z,98106.50
2022-08-26T13:25:01.347Z,98112.28
2022-08-26T13:28:03.136Z,98115.38
2022-08-26T13:31:05.132Z,98116.03
2022-08-26T13:34:09.701Z,98129.97
2022-08-26T13:37:13.095Z,98128.38
2022-08-26T13:40:14.785Z,98131.41
2022-08-26T13:43:17.193Z,98132.34
2022-08-26T13:46:20.754Z,98136.84
2022-08-26T13:49:24.138Z,98128.81
2022-08-26T13:52:30.533Z,98139.44
2022-08-26T13:55:32.687Z,98143.97
2022-08-26T13:58:34.177Z,98150.03
2022-08-26T14:01:36.280Z,98138.28
2022-08-26T14:04:39.339Z,98147.16
2022-08-26T14:07:40.850Z,98137.47
2022-08-26T14:10:42.679Z,98137.34
2022-08-26T14:13:44.277Z,98127.69
2022-08-26T14:16:59.761Z,98144.56
2022-08-26T14:20:04.298Z,98155.97
2022-08-26T14:23:14.205Z,98164.13
2022-08-26T14:26:28.606Z,98165.69
2022-08-26T14:29:31.163Z,98151.94
2022-08-26T14:32:33.159Z,98136.66
2022-08-26T14:35:36.229Z,98131.56
2022-08-26T14:38:37.713Z,98119.09
2022-08-26T14:41:42.599Z,98129.50
2022-08-26T14:44:45.828Z,98135.25
2022-08-26T14:47:48.211Z,98148.72
2022-08-26T14:50:51.631Z,98154.25
2022-08-26T14:54:11.777Z,98148.00
2022-08-26T14:57:13.983Z,98133.00
2022-08-26T15:00:15.786Z,98121.03
2022-08-26T15:06:20.317Z,98115.09
2022-08-26T15:09:22.458Z,98135.75
2022-08-26T15:12:24.328Z,98134.66
2022-08-26T15:15:26.009Z,98131.72
2022-08-26T15:18:27.536Z,98124.00
2022-08-26T15:21:33.001Z,98129.63
2022-08-26T15:24:34.556Z,98130.50
2022-08-26T15:27:36.182Z,98141.94
2022-08-26T15:30:38.139Z,98148.19
2022-08-26T15:33:40.416Z,98138.16
2022-08-26T15:36:44.869Z,98132.13
2022-08-26T15:39:46.849Z,98134.47
2022-08-26T15:42:51.770Z,98130.03
2022-08-26T15:45:59.293Z,98139.59
2022-08-26T15:49:01.416Z,98133.28
2022-08-26T15:52:05.471Z,98137.59
2022-08-26T15:55:07.709Z,98143.91
2022-08-26T15:58:10.384Z,98144.28
2022-08-26T16:01:15.029Z,98140.00
2022-08-26T16:04:28.968Z,98151.16
2022-08-26T16:07:32.450Z,98158.16
2022-08-26T16:10:34.655Z,98171.78
2022-08-26T16:13:39.693Z,98177.63
2022-08-26T16:16:42.246Z,98193.84
2022-08-26T16:19:43.745Z,98203.19
2022-08-26T16:22:46.823Z,98186.94
2022-08-26T16:25:48.406Z,98180.44
2022-08-26T16:28:49.954Z,98187.00
2022-08-26T16:31:53.350Z,98185.81
2022-08-26T16:34:57.452Z,98180.88
2022-08-26T16:38:00.355Z,98191.34
2022-08-26T16:41:03.766Z,98178.38
2022-08-26T16:44:05.922Z,98185.84
2022-08-26T16:47:07.716Z,98186.34
2022-08-26T16:50:10.256Z,98179.00
2022-08-26T16:56:15.791Z,98180.28
2022-08-26T16:59:19.310Z,98182.69
2022-08-26T17:02:21.439Z,98178.81
2022-08-26T17:05:25.222Z,98180.91
2022-08-26T17:08:28.668Z,98182.31
2022-08-26T17:11:30.819Z,98175.94
2022-08-26T17:14:33.625Z,98179.50
2022-08-26T17:17:35.302Z,98177.25
2022-08-26T17:20:37.270Z,98187.03
2022-08-26T17:23:43.122Z,98183.63
2022-08-26T17:26:48.464Z,98167.47
2022-08-26T17:29:55.250Z,98174.59
2022-08-26T17:32:56.924Z,98171.66
2022-08-26T17:35:59.269Z,98180.91
2022-08-26T17:39:02.448Z,98193.94
2022-08-26T17:42:04.441Z,98199.50
2022-08-26T17:45:06.943Z,98210.31
2022-08-26T17:48:08.632Z,98213.81
2022-08-26T17:51:13.789Z,98215.91
2022-08-26T17:54:17.017Z,98217.41
2022-08-26T17:57:18.605Z,98217.00
2022-08-26T18:00:23.025Z,98214.56
2022-08-26T18:03:24.573Z,98223.78
2022-08-26T18:06:26.701Z,98217.97
2022-08-26T18:09:31.734Z,98216.00
2022-08-26T18:12:33.334Z,98228.78
2022-08-26T18:15:35.104Z,98232.81
2022-08-26T18:18:36.909Z,98242.94
2022-08-26T18:21:38.594Z,98252.59
2022-08-26T18:24:41.709Z,98252.59
2022-08-26T18:28:00.142Z,98247.06
2022-08-26T18:31:02.304Z,98262.38
2022-08-26T18:34:03.963Z,98256.06
2022-08-26T18:40:18.976Z,98260.34
2022-08-26T18:43:21.380Z,98270.09
2022-08-26T18:46:25.382Z,98265.53
2022-08-26T18:49:30.589Z,98272.84
2022-08-26T18:52:32.570Z,98258.03
2022-08-26T18:55:36.372Z,98259.28
2022-08-26T18:58:38.372Z,98257.00
2022-08-26T19:01:40.767Z,98257.00
2022-08-26T19:04:42.708Z,98257.19
2022-08-26T19:07:44.250Z,98249.31
2022-08-26T19:10:51.129Z,98247.19
2022-08-26T19:13:55.257Z,98250.78
2022-08-26T19:16:57.255Z,98258.06
2022-08-26T19:19:59.007Z,98258.06
2022-08-26T19:23:05.697Z,98257.50
2022-08-26T19:26:13.922Z,98265.91
2022-08-26T19:29:15.744Z,98267.75
2022-08-26T19:32:17.686Z,98272.31
2022-08-26T19:35:19.195Z,98262.34
2022-08-26T19:38:21.132Z,98256.91
2022-08-26T19:41:34.175Z,98247.94
2022-08-26T19:44:57.514Z,98260.22
2022-08-26T19:47:59.268Z,98259.38
2022-08-26T19:51:03.836Z,98257.06
2022-08-26T19:54:05.717Z,98261.63
2022-08-26T19:57:08.589Z,98264.78
2022-08-26T20:00:11.950Z,98274.78
2022-08-26T20:03:14.835Z,98280.47
2022-08-26T20:06:17.806Z,98284.03
2022-08-26T20:09:21.551Z,98286.75
2022-08-26T20:12:24.961Z,98290.19
2022-08-26T20:15:26.603Z,98286.19
2022-08-26T20:18:48.799Z,98292.03
2022-08-26T20:21:50.456Z,98300.44
2022-08-26T20:24:52.966Z,98300.19
2022-08-26T20:27:55.995Z,98305.88
2022-08-26T20:30:57.503Z,98297.31
2022-08-26T20:33:59.091Z,98296.19
2022-08-26T20:37:00.814Z,98299.03
2022-08-26T20:40:02.817Z,98298.88
2022-08-26T20:43:06.257Z,98309.88
2022-08-26T20:46:08.319Z,98312.84
2022-08-26T20:49:18.693Z,98310.75
2022-08-26T20:52:21.506Z,98306.47
2022-08-26T20:55:23.162Z,98318.41
2022-08-26T20:58:26.145Z,98322.41
2022-08-26T21:01:30.659Z,98316.66
2022-08-26T21:04:32.489Z,98327.41
2022-08-26T21:07:34.310Z,98322.53
2022-08-26T21:10:36.562Z,98325.81
2022-08-26T21:14:03.472Z,98318.28
2022-08-26T21:17:01.361Z,98319.53
2022-08-26T21:20:03.665Z,98326.25
2022-08-26T21:23:05.966Z,98342.06
2022-08-26T21:26:08.827Z,98335.63
2022-08-26T21:29:13.623Z,98332.78
2022-08-26T21:32:15.936Z,98335.75
2022-08-26T21:35:17.738Z,98337.16
2022-08-26T21:38:19.731Z,98341.13
2022-08-26T21:41:25.014Z,98347.44
2022-08-26T21:44:27.911Z,98349.88
2022-08-26T21:47:30.356Z,98351.09
2022-08-26T21:50:31.944Z,98364.78
2022-08-26T21:53:33.872Z,98372.44
2022-08-26T21:56:39.593Z,98370.72
2022-08-26T21:59:42.612Z,98374.69
2022-08-26T22:02:44.137Z,98362.16
2022-08-26T22:05:47.380Z,98371.78
2022-08-26T22:08:48.929Z,98367.06
2022-08-26T22:11:50.925Z,98372.63
2022-08-26T22:14:54.024Z,98371.53
2022-08-26T22:17:55.488Z,98362.66
2022-08-26T22:20:58.670Z,98359.38
2022-08-26T22:24:00.299Z,98363.72
2022-08-26T22:27:01.812Z,98355.16
2022-08-26T22:30:05.504Z,98357.25
2022-08-26T22:33:07.207Z,98360.84
2022-08-26T22:36:14.960Z,98355.44
2022-08-26T22:39:17.362Z,98363.34
2022-08-26T22:42:18.961Z,98354.75
2022-08-26T22:45:22.202Z,98340.50
2022-08-26T22:48:24.579Z,98335.75
2022-08-26T22:51:28.046Z,98341.50
2022-08-26T22:54:29.620Z,98342.22
2022-08-26T22:57:31.304Z,98331.41
2022-08-26T23:00:34.469Z,98336.94
2022-08-26T23:03:36.048Z,98332.25
2022-08-26T23:06:39.164Z,98344.13
2022-08-26T23:09:40.884Z,98331.59
2022-08-26T23:12:42.553Z,98338.00
2022-08-26T23:15:45.635Z,98330.34
2022-08-26T23:18:47.220Z,98325.78
2022-08-26T23:21:49.610Z,98320.94
2022-08-26T23:24:51.368Z,98316.38
2022-08-26T23:27:52.955Z,98318.59
2022-08-26T23:30:55.837Z,98304.91
2022-08-26T23:34:16.078Z,98306.00
2022-08-26T23:37:19.716Z,98305.03
2022-08-26T23:40:27.981Z,98306.16
2022-08-26T23:43:29.599Z,98292.78
2022-08-26T23:46:33.259Z,98292.78
2022-08-26T23:49:35.026Z,98291.72
2022-08-26T23:52:55.544Z,98285.84
2022-08-26T23:55:57.622Z,98285.97
2022-08-26T23:58:59.505Z,98288.06
